Time;durP1;ratioP1;P1;durP2;ratioP2;P2;SDS_P1;SDS_P2;PMS_P1;PMS_P2;Temp;Humidity;BMP_temperature;BMP_pressure;BME280_temperature;BME280_humidity;BME280_pressure;Samples;Min_cycle;Max_cycle;Signal;HPM_P1;HPM_P2
2022/07/19 00:01:03;;;;;;;5.30;3.10;;;18.30;1.00;;;;;;5034531;28;20474;-74
2022/07/19 00:03:29;;;;;;;7.30;3.23;;;18.30;1.00;;;;;;5053585;28;20190;-74
2022/07/19 00:05:54;;;;;;;7.67;3.90;;;18.30;1.00;;;;;;5046555;28;20418;-74
2022/07/19 00:08:30;;;;;;;13.83;4.40;;;18.30;1.00;;;;;;5047529;28;20635;-74
2022/07/19 00:10:56;;;;;;;11.43;4.10;;;18.20;1.00;;;;;;5053515;28;20178;-74
2022/07/19 00:13:22;;;;;;;9.80;3.87;;;18.10;1.00;;;;;;5053708;28;20424;-75
2022/07/19 00:15:48;;;;;;;5.50;3.93;;;18.10;1.00;;;;;;5052001;28;20182;-74
2022/07/19 00:18:15;;;;;;;4.20;3.20;;;18.10;1.00;;;;;;5051015;28;20455;-78
2022/07/19 00:20:54;;;;;;;3.40;3.10;;;18.10;1.00;;;;;;5050377;28;20243;-78
2022/07/19 00:23:21;;;;;;;10.23;3.80;;;18.10;1.00;;;;;;5043564;28;20418;-78
2022/07/19 00:25:54;;;;;;;6.60;3.57;;;18.00;1.00;;;;;;5040569;28;20429;-78
2022/07/19 00:28:20;;;;;;;9.00;4.00;;;18.00;1.00;;;;;;5052348;28;20770;-78
2022/07/19 00:30:48;;;;;;;11.80;3.50;;;18.00;1.00;;;;;;5049221;28;20426;-78
2022/07/19 00:33:14;;;;;;;11.33;4.50;;;17.90;1.00;;;;;;5045024;28;20220;-74
2022/07/19 00:35:40;;;;;;;14.00;4.43;;;17.90;1.00;;;;;;5050101;28;20441;-74
2022/07/19 00:38:11;;;;;;;9.10;3.90;;;17.90;1.00;;;;;;5053317;28;20427;-74
2022/07/19 00:40:38;;;;;;;10.60;3.50;;;17.80;1.00;;;;;;5051182;28;20210;-74
2022/07/19 00:43:04;;;;;;;3.90;3.20;;;17.80;1.00;;;;;;5052351;28;20864;-74
2022/07/19 00:45:30;;;;;;;5.90;4.20;;;17.80;1.00;;;;;;5036900;28;20504;-74
2022/07/19 00:47:56;;;;;;;5.70;3.83;;;17.70;1.00;;;;;;5048797;28;20419;-74
2022/07/19 00:50:23;;;;;;;11.83;4.40;;;17.70;1.00;;;;;;5051359;28;20185;-74
2022/07/19 00:53:04;;;;;;;13.20;4.00;;;17.70;1.00;;;;;;5053379;28;20942;-74
2022/07/19 00:55:32;;;;;;;15.00;4.13;;;17.70;1.00;;;;;;5041029;28;20420;-74
2022/07/19 00:58:01;;;;;;;7.83;4.27;;;17.60;1.00;;;;;;5053079;28;20408;-74
2022/07/19 01:00:32;;;;;;;16.70;4.10;;;17.60;1.00;;;;;;5053174;28;20844;-74
2022/07/19 01:02:59;;;;;;;5.70;3.63;;;17.60;1.00;;;;;;5038281;28;20470;-78
2022/07/19 01:05:30;;;;;;;9.37;4.40;;;17.60;1.00;;;;;;5037160;28;20782;-78
2022/07/19 01:08:30;;;;;;;9.10;4.07;;;17.70;1.00;;;;;;5050351;28;20882;-78
2022/07/19 01:11:04;;;;;;;12.63;3.80;;;17.60;1.00;;;;;;5038064;28;20445;-78
2022/07/19 01:14:12;;;;;;;5.40;3.77;;;17.50;1.00;;;;;;5032161;28;20444;-78
2022/07/19 01:16:44;;;;;;;9.30;4.10;;;17.50;1.00;;;;;;5035752;28;20385;-78
2022/07/19 01:19:10;;;;;;;8.60;3.90;;;17.50;1.00;;;;;;5050642;28;20401;-74
2022/07/19 01:21:35;;;;;;;10.17;3.83;;;17.50;1.00;;;;;;5048043;28;20535;-74
2022/07/19 01:24:01;;;;;;;8.57;4.23;;;17.40;1.00;;;;;;5056969;28;20180;-74
2022/07/19 01:26:27;;;;;;;8.83;3.87;;;17.40;1.00;;;;;;5056926;28;20200;-74
2022/07/19 01:28:54;;;;;;;13.60;4.63;;;17.40;1.00;;;;;;5057102;28;20454;-74
2022/07/19 01:31:20;;;;;;;9.50;4.00;;;17.40;1.00;;;;;;5056177;28;20201;-74
2022/07/19 01:33:46;;;;;;;6.13;4.20;;;17.30;1.00;;;;;;5057251;28;20424;-74
2022/07/19 01:36:12;;;;;;;8.47;4.47;;;17.40;1.00;;;;;;5056991;28;20228;-74
2022/07/19 01:38:38;;;;;;;7.43;3.87;;;17.30;1.00;;;;;;5043362;28;20536;-75
2022/07/19 01:41:06;;;;;;;7.90;3.83;;;17.20;1.00;;;;;;5056546;28;20447;-74
2022/07/19 01:43:36;;;;;;;5.23;4.00;;;17.20;1.00;;;;;;5056736;28;20409;-74
2022/07/19 01:46:03;;;;;;;5.93;4.07;;;17.20;1.00;;;;;;5050582;28;20432;-74
2022/07/19 01:48:29;;;;;;;8.50;4.40;;;17.20;1.00;;;;;;5053799;28;20412;-78
2022/07/19 01:51:00;;;;;;;9.50;3.67;;;17.20;1.00;;;;;;5052663;28;20412;-79
2022/07/19 01:53:30;;;;;;;16.50;4.23;;;17.10;1.00;;;;;;5052358;28;20517;-78
2022/07/19 01:56:07;;;;;;;10.33;3.83;;;17.10;1.00;;;;;;5047428;28;20386;-78
2022/07/19 01:58:36;;;;;;;6.37;4.00;;;17.10;1.00;;;;;;5037711;28;20814;-78
2022/07/19 02:01:30;;;;;;;6.10;4.27;;;17.10;1.00;;;;;;5049307;28;20459;-78
2022/07/19 02:03:55;;;;;;;12.57;4.10;;;17.10;1.00;;;;;;5047212;28;20506;-74
2022/07/19 02:06:21;;;;;;;11.60;3.93;;;17.10;1.00;;;;;;5051610;28;20477;-74
2022/07/19 02:08:54;;;;;;;9.13;4.33;;;17.10;1.00;;;;;;5056257;28;20170;-75
2022/07/19 02:11:36;;;;;;;9.47;3.80;;;17.10;1.00;;;;;;5049039;28;20183;-74
2022/07/19 02:14:03;;;;;;;7.87;4.43;;;17.10;1.00;;;;;;5036526;28;20462;-74
2022/07/19 02:16:30;;;;;;;6.27;3.90;;;17.10;1.00;;;;;;5055683;28;20993;-74
2022/07/19 02:19:00;;;;;;;7.60;3.37;;;17.10;1.00;;;;;;5056322;28;20407;-75
2022/07/19 02:21:26;;;;;;;7.40;4.20;;;17.10;1.00;;;;;;5055506;28;20456;-74
2022/07/19 02:23:52;;;;;;;7.43;3.53;;;17.10;1.00;;;;;;5056016;28;20405;-74
2022/07/19 02:26:18;;;;;;;4.77;3.10;;;17.10;1.00;;;;;;5055660;28;20161;-74
2022/07/19 02:28:48;;;;;;;10.00;4.23;;;17.10;1.00;;;;;;5053769;28;20209;-74
2022/07/19 02:31:14;;;;;;;8.83;4.27;;;17.10;1.00;;;;;;5055682;28;20221;-74
2022/07/19 02:33:40;;;;;;;6.77;3.40;;;17.10;1.00;;;;;;5056087;28;20408;-74
2022/07/19 02:36:05;;;;;;;5.73;3.73;;;17.00;1.00;;;;;;5056157;28;20177;-75
2022/07/19 02:38:31;;;;;;;5.00;3.37;;;17.00;1.00;;;;;;5054237;28;20178;-74
2022/07/19 02:40:57;;;;;;;7.07;3.97;;;17.00;1.00;;;;;;5050946;28;20272;-75
2022/07/19 02:43:23;;;;;;;5.30;3.27;;;16.90;1.00;;;;;;5047898;28;20419;-74
2022/07/19 02:45:54;;;;;;;10.47;4.20;;;16.80;1.00;;;;;;5038059;28;20726;-74
2022/07/19 02:48:20;;;;;;;5.40;3.33;;;16.80;1.00;;;;;;5052300;28;20264;-75
2022/07/19 02:50:48;;;;;;;7.87;4.10;;;16.80;1.00;;;;;;5052509;28;20410;-74
2022/07/19 02:53:14;;;;;;;7.70;4.20;;;16.90;1.00;;;;;;5048794;28;20395;-74
2022/07/19 02:55:40;;;;;;;7.90;3.60;;;16.80;1.00;;;;;;5044669;28;20390;-74
2022/07/19 02:58:06;;;;;;;6.43;3.93;;;16.80;1.00;;;;;;5054882;28;20169;-74
2022/07/19 03:00:31;;;;;;;11.30;3.80;;;16.70;1.00;;;;;;5055333;28;20446;-74
2022/07/19 03:06:00;;;;;;;9.03;3.70;;;16.70;1.00;;;;;;5032997;28;20185;-79
2022/07/19 03:08:26;;;;;;;4.57;3.60;;;16.60;1.00;;;;;;5013082;28;20463;-79
2022/07/19 03:10:54;;;;;;;4.07;3.60;;;16.70;1.00;;;;;;5027597;28;20429;-78
2022/07/19 03:13:30;;;;;;;8.07;4.33;;;16.60;1.00;;;;;;5032799;28;20633;-79
2022/07/19 03:16:00;;;;;;;7.60;3.73;;;16.50;1.00;;;;;;5032441;28;20847;-78
2022/07/19 03:18:30;;;;;;;10.17;4.23;;;16.50;1.00;;;;;;5039562;28;20824;-78
2022/07/19 03:20:58;;;;;;;9.90;4.20;;;16.50;1.00;;;;;;5048336;28;20468;-79
2022/07/19 03:23:26;;;;;;;7.97;4.10;;;16.50;1.00;;;;;;5032750;28;20487;-79
2022/07/19 03:26:12;;;;;;;6.00;3.60;;;16.40;1.00;;;;;;5032627;28;20419;-79
2022/07/19 03:28:54;;;;;;;9.00;3.70;;;16.30;1.00;;;;;;5032899;28;20890;-78
2022/07/19 03:31:37;;;;;;;13.90;3.80;;;16.30;1.00;;;;;;5032497;28;20399;-78
2022/07/19 03:34:24;;;;;;;10.13;4.27;;;16.30;1.00;;;;;;5032755;28;20464;-78
2022/07/19 03:36:55;;;;;;;9.40;4.40;;;16.30;1.00;;;;;;5032481;28;21162;-78
2022/07/19 03:39:24;;;;;;;6.83;3.97;;;16.30;1.00;;;;;;5012889;28;20431;-79
2022/07/19 03:42:00;;;;;;;8.87;4.10;;;16.30;1.00;;;;;;5015073;28;20434;-79
2022/07/19 03:44:36;;;;;;;6.30;3.80;;;16.30;1.00;;;;;;5045100;28;20378;-78
2022/07/19 03:50:24;;;;;;;21.23;4.40;;;16.20;1.00;;;;;;5052762;28;20406;-74
2022/07/19 03:52:50;;;;;;;8.40;3.93;;;16.20;1.00;;;;;;5053334;28;20860;-74
2022/07/19 03:55:18;;;;;;;9.17;4.00;;;16.20;1.00;;;;;;5054383;28;20391;-75
2022/07/19 03:57:44;;;;;;;5.10;3.40;;;16.20;1.00;;;;;;5041354;28;20201;-75
2022/07/19 04:00:18;;;;;;;10.13;3.87;;;16.20;1.00;;;;;;5051787;28;20424;-75
2022/07/19 04:02:44;;;;;;;7.57;4.07;;;16.20;1.00;;;;;;5054065;28;20530;-75
2022/07/19 04:05:24;;;;;;;6.97;3.93;;;16.20;1.00;;;;;;5053938;28;20397;-78
2022/07/19 04:07:50;;;;;;;8.03;3.73;;;16.30;1.00;;;;;;5035745;28;20176;-78
2022/07/19 04:10:18;;;;;;;5.40;3.43;;;16.30;1.00;;;;;;5044105;28;20972;-79
2022/07/19 04:12:48;;;;;;;7.00;3.70;;;16.30;1.00;;;;;;5046935;28;20671;-79
2022/07/19 04:15:30;;;;;;;5.90;3.50;;;16.40;1.00;;;;;;5033738;28;20931;-79
2022/07/19 04:18:30;;;;;;;6.50;3.97;;;16.30;1.00;;;;;;5034758;28;20456;-78
2022/07/19 04:21:00;;;;;;;8.83;3.90;;;16.30;1.00;;;;;;5046994;28;21007;-79
2022/07/19 04:23:30;;;;;;;8.33;3.60;;;16.40;1.00;;;;;;5044871;28;20746;-79
2022/07/19 04:26:00;;;;;;;4.57;3.73;;;16.40;1.00;;;;;;5035187;28;20407;-79
2022/07/19 04:28:30;;;;;;;4.27;3.40;;;16.40;1.00;;;;;;5051944;28;20410;-79
2022/07/19 04:31:00;;;;;;;8.63;4.60;;;16.40;1.00;;;;;;5047567;28;20423;-79
2022/07/19 04:33:36;;;;;;;6.43;3.27;;;16.50;1.00;;;;;;5045687;28;20413;-77
2022/07/19 04:36:02;;;;;;;7.10;3.50;;;16.50;1.00;;;;;;5058485;28;21058;-83
2022/07/19 04:38:42;;;;;;;8.00;3.97;;;16.50;1.00;;;;;;5053225;28;20393;-84
2022/07/19 04:41:18;;;;;;;11.30;4.50;;;16.60;1.00;;;;;;5053644;28;20431;-80
2022/07/19 04:43:48;;;;;;;7.33;3.73;;;16.60;1.00;;;;;;5053378;28;20737;-84
2022/07/19 04:46:30;;;;;;;9.50;3.70;;;16.60;1.00;;;;;;5043310;28;20411;-84
2022/07/19 04:49:00;;;;;;;7.13;3.63;;;16.60;1.00;;;;;;5047284;28;20403;-84
2022/07/19 04:52:00;;;;;;;10.53;4.00;;;16.70;1.00;;;;;;5045375;28;20934;-84
2022/07/19 04:54:30;;;;;;;9.40;3.90;;;16.80;1.00;;;;;;5037938;28;20507;-84
2022/07/19 04:57:00;;;;;;;7.17;3.70;;;16.80;1.00;;;;;;5043834;28;21012;-86
2022/07/19 04:59:26;;;;;;;7.03;4.10;;;16.90;1.00;;;;;;5057592;28;20523;-84
2022/07/19 05:02:18;;;;;;;6.47;3.57;;;16.90;1.00;;;;;;5056198;28;20539;-84
2022/07/19 05:08:07;;;;;;;9.07;3.80;;;17.10;1.00;;;;;;5067278;28;20448;-96
2022/07/19 05:13:56;;;;;;;5.27;3.33;;;17.30;1.00;;;;;;5071220;28;20339;-96
2022/07/19 05:19:43;;;;;;;9.80;4.23;;;17.40;1.00;;;;;;5069043;28;21689;-84
2022/07/19 05:23:00;;;;;;;7.20;4.53;;;17.50;1.00;;;;;;5056064;28;20434;-84
2022/07/19 05:26:00;;;;;;;7.67;3.80;;;17.70;1.00;;;;;;5049414;28;20649;-85
2022/07/19 05:28:30;;;;;;;7.03;3.73;;;17.80;1.00;;;;;;5044985;28;20399;-85
2022/07/19 05:31:00;;;;;;;12.07;4.17;;;17.90;1.00;;;;;;5049725;28;20421;-85
2022/07/19 05:33:31;;;;;;;7.30;3.70;;;18.10;1.00;;;;;;5052695;28;20434;-85
2022/07/19 05:39:24;;;;;;;10.90;3.70;;;18.40;1.00;;;;;;5050033;28;20356;-96
2022/07/19 05:45:14;;;;;;;9.93;3.67;;;18.70;1.00;;;;;;5049424;28;20445;-96
2022/07/19 05:51:02;;;;;;;14.83;3.60;;;19.00;1.00;;;;;;5047576;28;20425;-96
2022/07/19 05:56:50;;;;;;;11.13;3.30;;;19.30;1.00;;;;;;5047041;28;20209;-96
2022/07/19 06:02:38;;;;;;;14.03;3.30;;;19.70;1.00;;;;;;5055509;28;20221;-96
2022/07/19 06:08:26;;;;;;;18.40;3.37;;;20.00;1.00;;;;;;5056915;28;20375;-95
2022/07/19 06:14:14;;;;;;;5.77;3.30;;;20.40;1.00;;;;;;5057091;28;20376;-95
2022/07/19 06:20:01;;;;;;;19.40;3.33;;;20.70;1.00;;;;;;5055625;28;20188;-93
2022/07/19 06:23:06;;;;;;;8.13;2.83;;;20.90;1.00;;;;;;5060173;28;20441;-94
2022/07/19 06:26:00;;;;;;;6.37;3.17;;;21.00;1.00;;;;;;5061568;28;20180;-93
2022/07/19 06:31:48;;;;;;;6.27;2.90;;;21.40;1.00;;;;;;5040948;28;20416;-92
2022/07/19 06:37:36;;;;;;;7.73;3.20;;;21.90;1.00;;;;;;5055192;28;20405;-81
2022/07/19 06:40:07;;;;;;;4.00;2.20;;;22.10;1.00;;;;;;5050604;28;20994;-81
2022/07/19 06:42:33;;;;;;;3.00;2.30;;;22.20;1.00;;;;;;5049566;28;20211;-73
2022/07/19 06:45:01;;;;;;;10.47;3.07;;;22.40;1.00;;;;;;5054408;28;20417;-73
2022/07/19 06:47:28;;;;;;;21.87;3.17;;;22.60;1.00;;;;;;5055143;28;20181;-72
2022/07/19 06:49:54;;;;;;;9.63;2.80;;;22.80;1.00;;;;;;5050077;28;20446;-72
2022/07/19 06:52:30;;;;;;;6.10;2.80;;;23.00;1.00;;;;;;5042273;28;20436;-76
2022/07/19 06:54:56;;;;;;;5.77;2.40;;;23.20;1.00;;;;;;5044861;28;20634;-72
2022/07/19 06:57:22;;;;;;;8.63;2.70;;;23.40;1.00;;;;;;5051941;28;20438;-73
2022/07/19 06:59:47;;;;;;;4.83;2.10;;;23.60;1.00;;;;;;5048549;28;20255;-73
2022/07/19 07:02:18;;;;;;;3.47;2.67;;;23.90;1.00;;;;;;5067623;28;21033;-73
2022/07/19 07:04:44;;;;;;;4.63;2.50;;;24.10;1.00;;;;;;5054530;28;20194;-73
2022/07/19 07:07:24;;;;;;;11.13;2.50;;;24.20;1.00;;;;;;5051819;28;20433;-76
2022/07/19 07:10:03;;;;;;;7.70;3.00;;;24.40;1.00;;;;;;5072346;28;20580;-77
2022/07/19 07:12:30;;;;;;;2.63;2.43;;;24.60;1.00;;;;;;5064346;28;20429;-77
2022/07/19 07:15:01;;;;;;;7.03;3.00;;;24.80;1.00;;;;;;5060765;28;20415;-77
2022/07/19 07:17:37;;;;;;;6.43;2.80;;;25.00;1.00;;;;;;5052688;28;20425;-77
2022/07/19 07:20:06;;;;;;;4.37;2.80;;;25.20;1.00;;;;;;5052714;28;20509;-77
2022/07/19 07:22:33;;;;;;;6.73;2.60;;;25.40;1.00;;;;;;5043815;28;20545;-77
2022/07/19 07:24:59;;;;;;;9.77;2.70;;;25.60;1.00;;;;;;5054704;28;20408;-77
2022/07/19 07:27:31;;;;;;;4.50;2.23;;;25.70;1.00;;;;;;5054643;28;20399;-77
2022/07/19 07:29:56;;;;;;;7.73;2.57;;;25.90;1.00;;;;;;5042151;28;20191;-77
2022/07/19 07:32:22;;;;;;;2.67;2.17;;;;;;;;;;5043583;28;20456;-86
2022/07/19 07:35:00;;;;;;;13.40;3.23;;;26.20;1.00;;;;;;5038337;28;20187;-78
2022/07/19 07:37:27;;;;;;;6.00;2.17;;;26.40;1.00;;;;;;5043269;28;20450;-74
2022/07/19 07:39:55;;;;;;;3.83;2.40;;;26.50;1.00;;;;;;5049726;28;20475;-75
2022/07/19 07:42:22;;;;;;;8.40;2.87;;;26.70;1.00;;;;;;5048672;28;21025;-75
2022/07/19 07:44:48;;;;;;;4.30;2.47;;;26.90;1.00;;;;;;5050618;28;20514;-75
2022/07/19 07:47:14;;;;;;;4.23;2.63;;;27.00;1.00;;;;;;5046242;28;20506;-74
2022/07/19 07:49:50;;;;;;;10.03;2.97;;;27.20;1.00;;;;;;5045971;28;20211;-75
2022/07/19 07:52:30;;;;;;;5.30;2.50;;;27.30;1.00;;;;;;5053199;28;20866;-77
2022/07/19 07:55:42;;;;;;;4.10;2.80;;;27.50;1.00;;;;;;5034321;28;20802;-78
2022/07/19 07:58:24;;;;;;;6.03;2.60;;;27.70;1.00;;;;;;5042574;28;20419;-78
2022/07/19 08:00:54;;;;;;;3.10;2.43;;;27.90;1.00;;;;;;5052710;28;20878;-77
2022/07/19 08:03:30;;;;;;;10.30;2.97;;;28.00;1.00;;;;;;5053749;28;20454;-77
2022/07/19 08:06:04;;;;;;;3.97;2.80;;;28.10;1.00;;;;;;5040693;28;20829;-75
2022/07/19 08:08:30;;;;;;;6.73;2.60;;;28.20;1.00;;;;;;5049612;28;20923;-74
2022/07/19 08:10:57;;;;;;;4.33;2.13;;;28.40;1.00;;;;;;5053662;28;20453;-75
2022/07/19 08:13:23;;;;;;;7.50;2.90;;;28.60;1.00;;;;;;5053756;28;20415;-75
2022/07/19 08:15:49;;;;;;;4.53;2.77;;;28.70;1.00;;;;;;5046841;28;20475;-74
2022/07/19 08:18:16;;;;;;;7.33;2.30;;;28.80;1.00;;;;;;5039148;28;20829;-75
2022/07/19 08:20:42;;;;;;;2.77;2.23;;;29.00;1.00;;;;;;5052420;28;20460;-75
2022/07/19 08:23:08;;;;;;;7.40;2.40;;;29.10;1.00;;;;;;5040579;28;20493;-75
2022/07/19 08:25:34;;;;;;;6.27;2.40;;;29.30;1.00;;;;;;5053066;28;20493;-75
2022/07/19 08:28:00;;;;;;;5.27;1.87;;;29.50;1.00;;;;;;5039218;28;20493;-75
2022/07/19 08:30:26;;;;;;;4.93;2.87;;;29.60;1.00;;;;;;5044329;28;20433;-75
2022/07/19 08:32:52;;;;;;;6.00;2.40;;;29.80;1.00;;;;;;5050931;28;20442;-75
2022/07/19 08:35:18;;;;;;;5.83;2.43;;;30.00;1.00;;;;;;5053992;28;20528;-75
2022/07/19 08:37:49;;;;;;;5.17;2.40;;;30.10;1.00;;;;;;5052593;28;20192;-77
2022/07/19 08:40:15;;;;;;;7.10;2.20;;;30.20;1.00;;;;;;5048448;28;20186;-77
2022/07/19 08:42:50;;;;;;;5.57;2.37;;;30.40;1.00;;;;;;5046825;28;20453;-77
2022/07/19 08:45:22;;;;;;;2.87;1.97;;;30.50;1.00;;;;;;5052758;28;20179;-77
2022/07/19 08:47:49;;;;;;;2.80;2.30;;;30.70;1.00;;;;;;5039622;28;20410;-77
2022/07/19 08:50:37;;;;;;;3.17;2.33;;;30.80;1.00;;;;;;5054542;28;20811;-78
2022/07/19 08:53:03;;;;;;;5.53;2.60;;;31.00;1.00;;;;;;5051285;28;20422;-74
2022/07/19 08:55:31;;;;;;;4.10;2.10;;;31.20;1.00;;;;;;5046123;28;20433;-75
2022/07/19 08:57:57;;;;;;;3.37;1.90;;;31.30;1.00;;;;;;5039427;28;20441;-74
2022/07/19 09:00:24;;;;;;;2.53;2.03;;;31.40;1.00;;;;;;5043252;28;20426;-75
2022/07/19 09:03:01;;;;;;;2.37;1.70;;;31.50;1.00;;;;;;5049022;28;20434;-75
2022/07/19 09:05:28;;;;;;;3.80;2.27;;;31.70;1.00;;;;;;5051332;28;20432;-75
2022/07/19 09:08:13;;;;;;;12.43;2.10;;;31.90;1.00;;;;;;5048980;28;20411;-77
2022/07/19 09:11:15;;;;;;;6.40;2.23;;;32.00;1.00;;;;;;5044725;28;20772;-77
2022/07/19 09:13:49;;;;;;;6.30;2.10;;;32.20;1.00;;;;;;5049530;28;20430;-77
2022/07/19 09:16:51;;;;;;;5.30;1.83;;;32.30;1.00;;;;;;5043769;28;20442;-77
2022/07/19 09:19:17;;;;;;;3.47;1.60;;;32.20;1.00;;;;;;4991913;28;20422;-77
2022/07/19 09:22:03;;;;;;;2.80;2.00;;;32.40;1.00;;;;;;5002902;28;20976;-75
2022/07/19 09:24:31;;;;;;;4.43;1.90;;;32.50;1.00;;;;;;4991213;28;20455;-75
2022/07/19 09:27:05;;;;;;;4.70;1.87;;;32.80;1.00;;;;;;4994261;28;20459;-75
2022/07/19 09:29:32;;;;;;;4.43;1.80;;;32.80;1.00;;;;;;5001695;28;20460;-70
2022/07/19 09:32:03;;;;;;;4.50;1.83;;;32.90;1.00;;;;;;4992396;28;20437;-78
2022/07/19 09:34:37;;;;;;;10.07;1.87;;;33.00;1.00;;;;;;4990684;28;20448;-77
2022/07/19 09:37:21;;;;;;;8.33;2.00;;;33.20;1.00;;;;;;4994813;28;20439;-79
2022/07/19 09:40:16;;;;;;;2.37;1.83;;;33.30;1.00;;;;;;4972857;28;20845;-78
2022/07/19 09:42:45;;;;;;;3.57;2.10;;;33.50;1.00;;;;;;4997055;28;20496;-77
2022/07/19 09:45:15;;;;;;;3.73;1.80;;;33.50;1.00;;;;;;4989246;28;20887;-77
2022/07/19 09:48:06;;;;;;;2.80;2.10;;;33.60;1.00;;;;;;4994020;28;20428;-77
2022/07/19 09:50:37;;;;;;;9.77;1.80;;;33.70;1.00;;;;;;4990773;28;20544;-78
2022/07/19 09:53:07;;;;;;;3.23;1.60;;;34.00;1.00;;;;;;5018453;28;20911;-83
2022/07/19 09:55:43;;;;;;;4.03;1.80;;;34.10;1.00;;;;;;5056135;28;20418;-81
2022/07/19 09:58:10;;;;;;;3.23;1.60;;;34.30;1.00;;;;;;5049358;28;20460;-78
2022/07/19 10:00:38;;;;;;;4.80;1.60;;;34.50;1.00;;;;;;5037802;28;20502;-76
2022/07/19 10:03:05;;;;;;;2.17;1.63;;;34.50;1.00;;;;;;5044684;28;20407;-75
2022/07/19 10:05:31;;;;;;;6.60;1.90;;;34.50;1.00;;;;;;5054198;28;20978;-76
2022/07/19 10:07:56;;;;;;;5.20;1.60;;;34.70;1.00;;;;;;5056515;28;20419;-77
2022/07/19 10:10:24;;;;;;;2.87;1.90;;;34.80;1.00;;;;;;5049863;28;20419;-78
2022/07/19 10:12:51;;;;;;;3.93;1.50;;;34.90;1.00;;;;;;5046505;28;20203;-78
2022/07/19 10:16:12;;;;;;;6.80;1.40;;;34.90;1.00;;;;;;5048083;28;20442;-85
2022/07/19 10:19:15;;;;;;;3.43;1.50;;;34.90;1.00;;;;;;5036393;28;20466;-87
2022/07/19 10:22:36;;;;;;;5.17;1.77;;;35.00;1.00;;;;;;5049950;28;20445;-87
2022/07/19 10:25:11;;;;;;;3.33;1.80;;;35.00;1.00;;;;;;5048432;28;20423;-77
2022/07/19 10:27:51;;;;;;;4.30;1.50;;;35.20;1.00;;;;;;5049309;28;20413;-78
2022/07/19 10:30:25;;;;;;;2.73;1.57;;;35.30;1.00;;;;;;5036082;28;20449;-78
2022/07/19 10:32:56;;;;;;;3.97;1.87;;;35.40;1.00;;;;;;5035809;28;20426;-80
2022/07/19 10:35:31;;;;;;;2.80;1.90;;;35.50;1.00;;;;;;5063405;28;20458;-80
2022/07/19 10:38:30;;;;;;;1.53;1.30;;;35.60;1.00;;;;;;5044887;28;20415;-83
2022/07/19 10:41:01;;;;;;;6.90;1.63;;;35.60;1.00;;;;;;5053689;28;20788;-83
2022/07/19 10:47:12;;;;;;;4.07;1.70;;;35.70;1.00;;;;;;5049171;28;20433;-87
2022/07/19 10:50:14;;;;;;;4.97;1.63;;;35.80;1.00;;;;;;5034870;28;20411;-84
2022/07/19 10:53:06;;;;;;;1.50;1.40;;;35.90;1.00;;;;;;5043828;28;20414;-87
2022/07/19 10:56:15;;;;;;;4.60;1.40;;;35.90;1.00;;;;;;5054123;28;20429;-83
2022/07/19 10:59:08;;;;;;;5.13;1.40;;;36.00;1.00;;;;;;5037801;28;20415;-85
2022/07/19 11:02:30;;;;;;;4.50;1.97;;;36.10;1.00;;;;;;5035335;28;20961;-84
2022/07/19 11:04:56;;;;;;;3.83;1.60;;;36.10;1.00;;;;;;5037988;28;20414;-84
2022/07/19 11:07:37;;;;;;;4.23;1.63;;;36.00;1.00;;;;;;5043049;28;20568;-87
2022/07/19 11:10:07;;;;;;;2.60;1.77;;;36.00;1.00;;;;;;5041349;28;20496;-79
2022/07/19 11:12:39;;;;;;;6.43;2.07;;;36.10;1.00;;;;;;5039689;28;20941;-79
2022/07/19 11:15:07;;;;;;;2.10;1.50;;;36.20;1.00;;;;;;5049094;28;20411;-79
2022/07/19 11:17:37;;;;;;;1.70;1.60;;;36.40;1.00;;;;;;5052325;28;20410;-78
2022/07/19 11:20:09;;;;;;;1.77;1.67;;;36.50;1.00;;;;;;5035282;28;20399;-76
2022/07/19 11:22:40;;;;;;;1.63;1.53;;;36.60;1.00;;;;;;5038463;28;20446;-75
2022/07/19 11:25:30;;;;;;;2.90;1.67;;;36.60;1.00;;;;;;5055182;28;20414;-81
2022/07/19 11:28:01;;;;;;;7.40;1.60;;;36.60;1.00;;;;;;5046986;28;20494;-81
2022/07/19 11:30:43;;;;;;;2.60;1.50;;;36.70;1.00;;;;;;5058789;28;20407;-84
2022/07/19 11:33:08;;;;;;;4.20;1.67;;;36.80;1.00;;;;;;5063640;28;20909;-79
2022/07/19 11:35:34;;;;;;;3.37;1.50;;;37.00;1.00;;;;;;5050763;28;20415;-78
2022/07/19 11:38:07;;;;;;;1.50;1.40;;;37.00;1.00;;;;;;5045459;28;20318;-79
2022/07/19 11:40:35;;;;;;;2.80;1.50;;;37.10;1.00;;;;;;5054340;28;20205;-78
2022/07/19 11:43:30;;;;;;;2.30;1.20;;;37.20;1.00;;;;;;5054198;28;20737;-77
2022/07/19 11:45:56;;;;;;;2.27;1.50;;;37.20;1.00;;;;;;5042400;28;20846;-77
2022/07/19 11:48:30;;;;;;;1.57;1.47;;;37.30;1.00;;;;;;5052135;28;20395;-77
2022/07/19 11:51:07;;;;;;;3.33;1.60;;;37.30;1.00;;;;;;5054445;28;20183;-77
2022/07/19 11:53:35;;;;;;;4.23;1.50;;;37.30;1.00;;;;;;5054654;28;20410;-78
2022/07/19 11:56:17;;;;;;;4.97;1.50;;;37.30;1.00;;;;;;5052761;28;20916;-77
2022/07/19 11:58:43;;;;;;;4.03;1.87;;;37.30;1.00;;;;;;5042355;28;20759;-77
2022/07/19 12:01:13;;;;;;;6.20;1.70;;;37.30;1.00;;;;;;5053751;28;21010;-79
2022/07/19 12:04:03;;;;;;;5.20;1.53;;;37.30;1.00;;;;;;5053776;28;20406;-80
2022/07/19 12:06:43;;;;;;;7.43;1.67;;;37.40;1.00;;;;;;5046487;28;21041;-79
2022/07/19 12:09:11;;;;;;;7.03;2.07;;;37.50;1.00;;;;;;5045571;28;20449;-78
2022/07/19 12:11:42;;;;;;;1.70;1.37;;;37.50;1.00;;;;;;5040492;28;20423;-77
2022/07/19 12:14:29;;;;;;;6.30;1.80;;;37.50;1.00;;;;;;5035492;28;20410;-75
2022/07/19 12:17:17;;;;;;;6.90;1.60;;;37.50;1.00;;;;;;5045878;28;20797;-77
2022/07/19 12:20:21;;;;;;;2.50;1.63;;;37.50;1.00;;;;;;5044636;28;20429;-78
2022/07/19 12:22:51;;;;;;;2.27;1.43;;;37.60;1.00;;;;;;4990687;28;20566;-77
2022/07/19 12:25:45;;;;;;;2.93;1.70;;;37.60;1.00;;;;;;4989111;28;20438;-82
2022/07/19 12:28:11;;;;;;;4.77;1.77;;;37.80;1.00;;;;;;4982046;28;20428;-82
2022/07/19 12:31:01;;;;;;;6.97;1.87;;;38.00;1.00;;;;;;4992085;28;20524;-82
2022/07/19 12:33:31;;;;;;;6.43;1.77;;;38.00;1.00;;;;;;4992254;28;20181;-80
2022/07/19 12:36:01;;;;;;;4.00;1.70;;;38.00;1.00;;;;;;4992148;28;20444;-80
2022/07/19 12:38:33;;;;;;;6.70;1.73;;;38.20;1.00;;;;;;4992041;28;20793;-79
2022/07/19 12:41:08;;;;;;;3.60;1.90;;;38.30;1.00;;;;;;4969559;28;20919;-76
2022/07/19 12:43:37;;;;;;;12.13;2.00;;;38.30;1.00;;;;;;4987038;28;20938;-75
2022/07/19 12:46:02;;;;;;;1.90;1.67;;;38.30;1.00;;;;;;4987593;28;20421;-75
2022/07/19 12:48:31;;;;;;;3.80;1.70;;;38.40;1.00;;;;;;4981299;28;20495;-76
2022/07/19 12:51:01;;;;;;;5.17;2.93;;;38.40;1.00;;;;;;4978961;28;20190;-76
2022/07/19 12:53:31;;;;;;;1.93;1.53;;;38.20;1.00;;;;;;4991990;28;20936;-77
2022/07/19 12:56:01;;;;;;;6.70;2.10;;;38.20;1.00;;;;;;4999430;28;20419;-79
2022/07/19 13:01:21;;;;;;;2.57;1.90;;;38.30;1.00;;;;;;5042810;28;20468;-81
2022/07/19 13:03:49;;;;;;;4.07;1.83;;;38.30;1.00;;;;;;5049319;28;20411;-81
2022/07/19 13:06:15;;;;;;;5.23;1.60;;;38.30;1.00;;;;;;5043110;28;20171;-81
2022/07/19 13:08:43;;;;;;;2.90;1.80;;;38.40;1.00;;;;;;5050207;28;20411;-81
2022/07/19 13:11:13;;;;;;;3.87;2.07;;;38.40;1.00;;;;;;5042009;28;20709;-81
2022/07/19 13:13:43;;;;;;;3.00;1.90;;;38.50;1.00;;;;;;5052957;28;20843;-81
2022/07/19 13:16:13;;;;;;;4.37;2.20;;;38.70;1.00;;;;;;5044006;28;20936;-81
2022/07/19 13:18:53;;;;;;;4.10;2.33;;;38.80;1.00;;;;;;5037677;28;20421;-81
2022/07/19 13:21:19;;;;;;;5.53;2.13;;;38.70;1.00;;;;;;5050366;28;20545;-80
2022/07/19 13:23:45;;;;;;;14.00;2.60;;;38.80;1.00;;;;;;5044911;28;20464;-81
2022/07/19 13:26:19;;;;;;;5.73;2.43;;;38.80;1.00;;;;;;5057295;28;20409;-77
2022/07/19 13:28:44;;;;;;;3.70;2.20;;;38.90;1.00;;;;;;5055703;28;20225;-77
2022/07/19 13:31:13;;;;;;;7.80;2.27;;;39.00;1.00;;;;;;5057074;28;20398;-77
2022/07/19 13:33:39;;;;;;;7.60;2.27;;;39.00;1.00;;;;;;5056900;28;20184;-77
2022/07/19 13:36:05;;;;;;;11.03;2.77;;;39.10;1.00;;;;;;5050453;28;20446;-77
2022/07/19 13:38:30;;;;;;;3.83;2.07;;;39.10;1.00;;;;;;5050750;28;20210;-77
2022/07/19 13:40:56;;;;;;;6.40;1.90;;;39.20;1.00;;;;;;5040742;28;20491;-77
2022/07/19 13:43:22;;;;;;;11.83;2.20;;;39.20;1.00;;;;;;5050301;28;20218;-77
2022/07/19 13:45:50;;;;;;;2.17;2.07;;;39.20;1.00;;;;;;5056668;28;20233;-78
2022/07/19 13:48:16;;;;;;;5.77;2.10;;;39.30;1.00;;;;;;5043064;28;20238;-79
2022/07/19 13:50:42;;;;;;;5.40;2.07;;;39.30;1.00;;;;;;5055593;28;20749;-76
2022/07/19 13:53:07;;;;;;;6.93;2.50;;;39.40;1.00;;;;;;5055832;28;20235;-76
2022/07/19 13:55:43;;;;;;;2.70;2.20;;;39.50;1.00;;;;;;5047158;28;20176;-79
2022/07/19 13:58:08;;;;;;;2.50;1.90;;;39.60;1.00;;;;;;5054967;28;20615;-77
2022/07/19 14:00:34;;;;;;;5.20;2.10;;;39.60;1.00;;;;;;5036372;28;20411;-77
2022/07/19 14:03:00;;;;;;;7.77;1.97;;;39.60;1.00;;;;;;5041388;28;20176;-77
2022/07/19 14:05:31;;;;;;;6.60;2.33;;;39.60;1.00;;;;;;5045449;28;20172;-78
2022/07/19 14:07:57;;;;;;;19.73;2.40;;;39.60;1.00;;;;;;5054442;28;20178;-78
2022/07/19 14:10:22;;;;;;;4.80;2.00;;;39.50;1.00;;;;;;5050627;28;20486;-77
2022/07/19 14:12:48;;;;;;;3.00;2.20;;;39.40;1.00;;;;;;5048900;28;20636;-77
2022/07/19 14:15:19;;;;;;;3.13;1.77;;;39.50;1.00;;;;;;5049331;28;20180;-76
2022/07/19 14:17:46;;;;;;;4.97;1.77;;;39.50;1.00;;;;;;5056994;28;20175;-75
2022/07/19 14:20:13;;;;;;;3.50;2.20;;;39.60;1.00;;;;;;5044832;28;20509;-76